sensor_id;sensor_type;location;lat;lon;timestamp;pressure;altitude;pressure_sealevel;temperature;humidity
7824;BME280;3957;48.61947800;9.05303100;2023-04-21T00:00:16;95706.63;;;2.37;100.00
7824;BME280;3957;48.61947800;9.05303100;2023-04-21T00:01:17;95698.06;;;2.35;100.00
7824;BME280;3957;48.61947800;9.05303100;2023-04-21T00:02:19;95706.47;;;2.31;100.00
7824;BME280;3957;48.61947800;9.05303100;2023-04-21T00:03:22;95705.97;;;2.27;100.00
7824;BME280;3957;48.61947800;9.05303100;2023-04-21T00:04:24;95699.88;;;2.27;100.00
7824;BME280;3957;48.61947800;9.05303100;2023-04-21T00:05:26;95705.44;;;2.24;100.00
7824;BME280;3957;48.61947800;9.05303100;2023-04-21T00:06:28;95702.31;;;2.20;100.00
7824;BME280;3957;48.61947800;9.05303100;2023-04-21T00:07:31;95706.09;;;2.17;100.00
7824;BME280;3957;48.61947800;9.05303100;2023-04-21T00:08:35;95705.44;;;2.15;100.00
7824;BME280;3957;48.61947800;9.05303100;2023-04-21T00:09:41;95704.78;;;2.13;100.00
7824;BME280;3957;48.61947800;9.05303100;2023-04-21T00:10:43;95705.28;;;2.09;100.00
7824;BME280;3957;48.61947800;9.05303100;2023-04-21T00:11:45;95697.66;;;2.06;100.00
7824;BME280;3957;48.61947800;9.05303100;2023-04-21T00:12:46;95700.44;;;2.04;100.00
7824;BME280;3957;48.61947800;9.05303100;2023-04-21T00:13:47;95701.44;;;2.03;100.00
7824;BME280;3957;48.61947800;9.05303100;2023-04-21T00:14:49;95701.59;;;2.01;100.00
7824;BME280;3957;48.61947800;9.05303100;2023-04-21T00:15:50;95696.47;;;2.00;100.00
7824;BME280;3957;48.61947800;9.05303100;2023-04-21T00:16:52;95698.47;;;1.98;100.00
7824;BME280;3957;48.61947800;9.05303100;2023-04-21T00:17:53;95699.59;;;1.95;100.00
7824;BME280;3957;48.61947800;9.05303100;2023-04-21T00:18:56;95696.16;;;1.95;100.00
7824;BME280;3957;48.61947800;9.05303100;2023-04-21T00:19:57;95694.50;;;1.94;100.00
7824;BME280;3957;48.61947800;9.05303100;2023-04-21T00:20:59;95697.81;;;2.04;100.00
7824;BME280;3957;48.61947800;9.05303100;2023-04-21T00:22:00;95692.38;;;2.06;100.00
7824;BME280;3957;48.61947800;9.05303100;2023-04-21T00:23:02;95696.31;;;2.01;100.00
7824;BME280;3957;48.61947800;9.05303100;2023-04-21T00:24:04;95686.25;;;1.97;100.00
7824;BME280;3957;48.61947800;9.05303100;2023-04-21T00:25:06;95690.72;;;1.96;100.00
7824;BME280;3957;48.61947800;9.05303100;2023-04-21T00:26:08;95685.25;;;1.90;100.00
7824;BME280;3957;48.61947800;9.05303100;2023-04-21T00:27:10;95683.75;;;1.87;100.00
7824;BME280;3957;48.61947800;9.05303100;2023-04-21T00:28:12;95681.75;;;1.89;100.00
7824;BME280;3957;48.61947800;9.05303100;2023-04-21T00:29:13;95681.28;;;1.85;100.00
7824;BME280;3957;48.61947800;9.05303100;2023-04-21T00:30:15;95678.97;;;1.82;100.00
7824;BME280;3957;48.61947800;9.05303100;2023-04-21T00:31:17;95681.06;;;1.79;100.00
7824;BME280;3957;48.61947800;9.05303100;2023-04-21T00:32:19;95676.94;;;1.76;100.00
7824;BME280;3957;48.61947800;9.05303100;2023-04-21T00:33:20;95678.94;;;1.74;100.00
7824;BME280;3957;48.61947800;9.05303100;2023-04-21T00:34:22;95675.78;;;1.70;100.00
7824;BME280;3957;48.61947800;9.05303100;2023-04-21T00:35:25;95681.22;;;1.69;100.00
7824;BME280;3957;48.61947800;9.05303100;2023-04-21T00:36:28;95674.28;;;1.68;100.00
7824;BME280;3957;48.61947800;9.05303100;2023-04-21T00:37:29;95670.81;;;1.67;100.00
7824;BME280;3957;48.61947800;9.05303100;2023-04-21T00:38:31;95673.28;;;1.69;100.00
7824;BME280;3957;48.61947800;9.05303100;2023-04-21T00:39:33;95664.41;;;1.70;100.00
7824;BME280;3957;48.61947800;9.05303100;2023-04-21T00:40:34;95664.41;;;1.70;100.00
7824;BME280;3957;48.61947800;9.05303100;2023-04-21T00:41:38;95669.81;;;1.68;100.00
7824;BME280;3957;48.61947800;9.05303100;2023-04-21T00:42:40;95666.53;;;1.66;100.00
7824;BME280;3957;48.61947800;9.05303100;2023-04-21T00:44:04;95672.97;;;1.72;100.00
7824;BME280;3957;48.61947800;9.05303100;2023-04-21T00:45:06;95668.50;;;1.73;100.00
7824;BME280;3957;48.61947800;9.05303100;2023-04-21T00:46:07;95676.41;;;1.73;100.00
7824;BME280;3957;48.61947800;9.05303100;2023-04-21T00:47:09;95674.44;;;1.66;100.00
7824;BME280;3957;48.61947800;9.05303100;2023-04-21T00:48:11;95670.31;;;1.64;100.00
7824;BME280;3957;48.61947800;9.05303100;2023-04-21T00:49:12;95676.06;;;1.59;100.00
7824;BME280;3957;48.61947800;9.05303100;2023-04-21T00:50:15;95676.38;;;1.56;100.00
7824;BME280;3957;48.61947800;9.05303100;2023-04-21T00:51:17;95672.53;;;1.50;100.00
7824;BME280;3957;48.61947800;9.05303100;2023-04-21T00:52:19;95670.22;;;1.47;100.00
7824;BME280;3957;48.61947800;9.05303100;2023-04-21T00:53:21;95673.50;;;1.41;100.00
7824;BME280;3957;48.61947800;9.05303100;2023-04-21T00:54:24;95679.06;;;1.38;100.00
7824;BME280;3957;48.61947800;9.05303100;2023-04-21T00:55:27;95671.47;;;1.35;100.00
7824;BME280;3957;48.61947800;9.05303100;2023-04-21T00:56:31;95669.16;;;1.32;100.00
7824;BME280;3957;48.61947800;9.05303100;2023-04-21T00:57:35;95672.78;;;1.31;100.00
7824;BME280;3957;48.61947800;9.05303100;2023-04-21T00:58:41;95673.78;;;1.30;100.00
7824;BME280;3957;48.61947800;9.05303100;2023-04-21T00:59:42;95669.47;;;1.29;100.00
7824;BME280;3957;48.61947800;9.05303100;2023-04-21T01:00:44;95674.06;;;1.27;100.00
7824;BME280;3957;48.61947800;9.05303100;2023-04-21T01:01:45;95670.94;;;1.23;100.00
7824;BME280;3957;48.61947800;9.05303100;2023-04-21T01:02:48;95665.13;;;1.19;100.00
7824;BME280;3957;48.61947800;9.05303100;2023-04-21T01:03:50;95664.78;;;1.14;100.00
7824;BME280;3957;48.61947800;9.05303100;2023-04-21T01:04:52;95662.44;;;1.11;100.00
7824;BME280;3957;48.61947800;9.05303100;2023-04-21T01:05:54;95663.75;;;1.07;100.00
7824;BME280;3957;48.61947800;9.05303100;2023-04-21T01:06:57;95664.06;;;1.04;100.00
7824;BME280;3957;48.61947800;9.05303100;2023-04-21T01:08:00;95665.03;;;1.03;100.00
7824;BME280;3957;48.61947800;9.05303100;2023-04-21T01:09:02;95663.38;;;1.02;100.00
7824;BME280;3957;48.61947800;9.05303100;2023-04-21T01:10:09;95664.50;;;0.99;100.00
7824;BME280;3957;48.61947800;9.05303100;2023-04-21T01:11:12;95663.84;;;0.97;100.00
7824;BME280;3957;48.61947800;9.05303100;2023-04-21T01:12:13;95662.34;;;0.95;100.00
7824;BME280;3957;48.61947800;9.05303100;2023-04-21T01:13:18;95671.38;;;0.92;100.00
7824;BME280;3957;48.61947800;9.05303100;2023-04-21T01:14:20;95667.25;;;0.90;100.00
7824;BME280;3957;48.61947800;9.05303100;2023-04-21T01:15:22;95663.25;;;0.85;100.00
7824;BME280;3957;48.61947800;9.05303100;2023-04-21T01:16:25;95660.78;;;0.84;100.00
7824;BME280;3957;48.61947800;9.05303100;2023-04-21T01:17:27;95664.44;;;0.83;100.00
7824;BME280;3957;48.61947800;9.05303100;2023-04-21T01:18:30;95662.06;;;0.80;100.00
7824;BME280;3957;48.61947800;9.05303100;2023-04-21T01:19:35;95662.69;;;0.74;100.00
7824;BME280;3957;48.61947800;9.05303100;2023-04-21T01:20:40;95658.72;;;0.70;100.00
7824;BME280;3957;48.61947800;9.05303100;2023-04-21T01:21:41;95666.94;;;0.66;100.00
7824;BME280;3957;48.61947800;9.05303100;2023-04-21T01:22:43;95670.84;;;0.62;100.00
7824;BME280;3957;48.61947800;9.05303100;2023-04-21T01:23:45;95661.59;;;0.58;100.00
7824;BME280;3957;48.61947800;9.05303100;2023-04-21T01:24:47;95666.19;;;0.56;100.00
7824;BME280;3957;48.61947800;9.05303100;2023-04-21T01:25:51;95667.84;;;0.57;100.00
7824;BME280;3957;48.61947800;9.05303100;2023-04-21T01:26:52;95667.69;;;0.59;100.00
7824;BME280;3957;48.61947800;9.05303100;2023-04-21T01:27:54;95676.28;;;0.61;100.00
7824;BME280;3957;48.61947800;9.05303100;2023-04-21T01:28:56;95673.25;;;0.56;100.00
7824;BME280;3957;48.61947800;9.05303100;2023-04-21T01:29:58;95666.88;;;0.58;100.00
7824;BME280;3957;48.61947800;9.05303100;2023-04-21T01:31:01;95668.81;;;0.56;100.00
7824;BME280;3957;48.61947800;9.05303100;2023-04-21T01:32:12;95668.81;;;0.56;100.00
7824;BME280;3957;48.61947800;9.05303100;2023-04-21T01:33:14;95669.28;;;0.52;100.00
7824;BME280;3957;48.61947800;9.05303100;2023-04-21T01:34:16;95666.66;;;0.52;100.00
7824;BME280;3957;48.61947800;9.05303100;2023-04-21T01:35:18;95673.19;;;0.47;100.00
7824;BME280;3957;48.61947800;9.05303100;2023-04-21T01:36:20;95668.22;;;0.44;100.00
7824;BME280;3957;48.61947800;9.05303100;2023-04-21T01:37:24;95676.78;;;0.46;100.00
7824;BME280;3957;48.61947800;9.05303100;2023-04-21T01:38:27;95674.31;;;0.45;100.00
7824;BME280;3957;48.61947800;9.05303100;2023-04-21T01:39:32;95673.34;;;0.46;100.00
7824;BME280;3957;48.61947800;9.05303100;2023-04-21T01:40:34;95675.81;;;0.47;100.00
7824;BME280;3957;48.61947800;9.05303100;2023-04-21T01:41:36;95681.09;;;0.47;100.00
7824;BME280;3957;48.61947800;9.05303100;2023-04-21T01:42:40;95668.88;;;0.46;100.00
7824;BME280;3957;48.61947800;9.05303100;2023-04-21T01:43:43;95668.88;;;0.46;100.00
7824;BME280;3957;48.61947800;9.05303100;2023-04-21T01:44:45;95667.38;;;0.44;100.00
7824;BME280;3957;48.61947800;9.05303100;2023-04-21T01:45:48;95668.06;;;0.46;100.00
7824;BME280;3957;48.61947800;9.05303100;2023-04-21T01:46:51;95664.25;;;0.40;100.00
7824;BME280;3957;48.61947800;9.05303100;2023-04-21T01:47:52;95663.72;;;0.37;100.00
7824;BME280;3957;48.61947800;9.05303100;2023-04-21T01:48:54;95667.63;;;0.32;100.00
7824;BME280;3957;48.61947800;9.05303100;2023-04-21T01:49:55;95658.38;;;0.28;100.00
7824;BME280;3957;48.61947800;9.05303100;2023-04-21T01:50:57;95663.78;;;0.27;100.00
7824;BME280;3957;48.61947800;9.05303100;2023-04-21T01:51:58;95660.47;;;0.25;100.00
7824;BME280;3957;48.61947800;9.05303100;2023-04-21T01:53:00;95666.56;;;0.25;100.00
7824;BME280;3957;48.61947800;9.05303100;2023-04-21T01:54:02;95661.47;;;0.24;100.00
7824;BME280;3957;48.61947800;9.05303100;2023-04-21T01:55:04;95659.66;;;0.24;100.00
7824;BME280;3957;48.61947800;9.05303100;2023-04-21T01:56:07;95663.25;;;0.23;100.00
7824;BME280;3957;48.61947800;9.05303100;2023-04-21T01:57:09;95665.59;;;0.26;100.00
7824;BME280;3957;48.61947800;9.05303100;2023-04-21T01:58:11;95666.88;;;0.22;100.00
7824;BME280;3957;48.61947800;9.05303100;2023-04-21T01:59:13;95664.91;;;0.24;100.00
7824;BME280;3957;48.61947800;9.05303100;2023-04-21T02:00:15;95666.03;;;0.22;100.00
7824;BME280;3957;48.61947800;9.05303100;2023-04-21T02:01:18;95668.66;;;0.22;100.00
7824;BME280;3957;48.61947800;9.05303100;2023-04-21T02:02:19;95667.00;;;0.21;100.00
7824;BME280;3957;48.61947800;9.05303100;2023-04-21T02:03:21;95664.53;;;0.19;100.00
7824;BME280;3957;48.61947800;9.05303100;2023-04-21T02:04:23;95665.66;;;0.16;100.00
7824;BME280;3957;48.61947800;9.05303100;2023-04-21T02:05:25;95670.91;;;0.16;100.00
7824;BME280;3957;48.61947800;9.05303100;2023-04-21T02:06:26;95666.81;;;0.14;100.00
7824;BME280;3957;48.61947800;9.05303100;2023-04-21T02:07:28;95667.31;;;0.17;100.00
7824;BME280;3957;48.61947800;9.05303100;2023-04-21T02:08:29;95665.38;;;0.20;100.00
7824;BME280;3957;48.61947800;9.05303100;2023-04-21T02:09:31;95664.38;;;0.21;100.00
7824;BME280;3957;48.61947800;9.05303100;2023-04-21T02:10:32;95661.63;;;0.22;100.00
7824;BME280;3957;48.61947800;9.05303100;2023-04-21T02:11:34;95662.28;;;0.24;100.00
7824;BME280;3957;48.61947800;9.05303100;2023-04-21T02:12:36;95661.81;;;0.29;100.00
7824;BME280;3957;48.61947800;9.05303100;2023-04-21T02:13:37;95666.28;;;0.28;100.00
7824;BME280;3957;48.61947800;9.05303100;2023-04-21T02:14:39;95657.72;;;0.26;100.00
7824;BME280;3957;48.61947800;9.05303100;2023-04-21T02:15:41;95661.81;;;0.29;100.00
7824;BME280;3957;48.61947800;9.05303100;2023-04-21T02:16:43;95663.47;;;0.30;100.00
7824;BME280;3957;48.61947800;9.05303100;2023-04-21T02:17:44;95660.84;;;0.30;100.00
7824;BME280;3957;48.61947800;9.05303100;2023-04-21T02:18:46;95661.97;;;0.27;100.00
7824;BME280;3957;48.61947800;9.05303100;2023-04-21T02:19:48;95664.91;;;0.24;100.00
7824;BME280;3957;48.61947800;9.05303100;2023-04-21T02:20:50;95661.63;;;0.22;100.00
7824;BME280;3957;48.61947800;9.05303100;2023-04-21T02:21:52;95665.38;;;0.20;100.00
7824;BME280;3957;48.61947800;9.05303100;2023-04-21T02:22:55;95661.75;;;0.21;100.00
7824;BME280;3957;48.61947800;9.05303100;2023-04-21T02:23:57;95662.28;;;0.24;100.00
7824;BME280;3957;48.61947800;9.05303100;2023-04-21T02:25:00;95657.72;;;0.26;100.00
7824;BME280;3957;48.61947800;9.05303100;2023-04-21T02:26:01;95661.69;;;0.30;100.00
7824;BME280;3957;48.61947800;9.05303100;2023-04-21T02:27:05;95664.31;;;0.30;100.00
7824;BME280;3957;48.61947800;9.05303100;2023-04-21T02:28:07;95661.53;;;0.32;100.00
7824;BME280;3957;48.61947800;9.05303100;2023-04-21T02:29:09;95663.47;;;0.30;100.00
7824;BME280;3957;48.61947800;9.05303100;2023-04-21T02:30:11;95655.75;;;0.28;100.00
7824;BME280;3957;48.61947800;9.05303100;2023-04-21T02:31:16;95665.28;;;0.29;100.00
7824;BME280;3957;48.61947800;9.05303100;2023-04-21T02:32:18;95663.63;;;0.28;100.00
7824;BME280;3957;48.61947800;9.05303100;2023-04-21T02:33:26;95656.88;;;0.26;100.00
7824;BME280;3957;48.61947800;9.05303100;2023-04-21T02:34:28;95666.41;;;0.27;100.00
7824;BME280;3957;48.61947800;9.05303100;2023-04-21T02:35:30;95662.97;;;0.26;100.00
7824;BME280;3957;48.61947800;9.05303100;2023-04-21T02:36:31;95666.28;;;0.28;100.00
7824;BME280;3957;48.61947800;9.05303100;2023-04-21T02:37:34;95664.75;;;0.26;100.00
7824;BME280;3957;48.61947800;9.05303100;2023-04-21T02:38:35;95661.16;;;0.27;100.00
7824;BME280;3957;48.61947800;9.05303100;2023-04-21T02:39:37;95660.19;;;0.28;100.00
7824;BME280;3957;48.61947800;9.05303100;2023-04-21T02:40:39;95661.00;;;0.28;100.00
7824;BME280;3957;48.61947800;9.05303100;2023-04-21T02:41:41;95658.53;;;0.27;100.00
7824;BME280;3957;48.61947800;9.05303100;2023-04-21T02:42:42;95669.06;;;0.27;100.00
7824;BME280;3957;48.61947800;9.05303100;2023-04-21T02:43:44;95669.22;;;0.25;100.00
7824;BME280;3957;48.61947800;9.05303100;2023-04-21T02:44:45;95670.19;;;0.24;100.00
7824;BME280;3957;48.61947800;9.05303100;2023-04-21T02:45:47;95670.31;;;0.23;100.00
7824;BME280;3957;48.61947800;9.05303100;2023-04-21T02:46:48;95669.50;;;0.22;100.00
7824;BME280;3957;48.61947800;9.05303100;2023-04-21T02:47:50;95670.47;;;0.21;100.00
7824;BME280;3957;48.61947800;9.05303100;2023-04-21T02:48:52;95659.97;;;0.21;100.00
7824;BME280;3957;48.61947800;9.05303100;2023-04-21T02:49:53;95666.03;;;0.22;100.00
7824;BME280;3957;48.61947800;9.05303100;2023-04-21T02:50:55;95663.25;;;0.23;100.00
7824;BME280;3957;48.61947800;9.05303100;2023-04-21T02:51:57;95659.00;;;0.22;100.00
7824;BME280;3957;48.61947800;9.05303100;2023-04-21T02:52:58;95667.00;;;0.21;100.00
7824;BME280;3957;48.61947800;9.05303100;2023-04-21T02:54:00;95661.91;;;0.19;100.00
7824;BME280;3957;48.61947800;9.05303100;2023-04-21T02:55:02;95668.97;;;0.19;100.00
7824;BME280;3957;48.61947800;9.05303100;2023-04-21T02:56:05;95670.63;;;0.20;100.00
7824;BME280;3957;48.61947800;9.05303100;2023-04-21T02:57:07;95659.25;;;0.19;100.00
7824;BME280;3957;48.61947800;9.05303100;2023-04-21T02:58:09;95660.94;;;0.20;100.00
7824;BME280;3957;48.61947800;9.05303100;2023-04-21T02:59:12;95666.88;;;0.22;100.00
7824;BME280;3957;48.61947800;9.05303100;2023-04-21T03:00:17;95653.56;;;0.24;100.00
7824;BME280;3957;48.61947800;9.05303100;2023-04-21T03:01:18;95648.53;;;0.30;100.00
7824;BME280;3957;48.61947800;9.05303100;2023-04-21T03:02:20;95650.16;;;0.31;100.00
7824;BME280;3957;48.61947800;9.05303100;2023-04-21T03:03:22;95642.81;;;0.35;100.00
7824;BME280;3957;48.61947800;9.05303100;2023-04-21T03:04:24;95646.63;;;0.41;100.00
7824;BME280;3957;48.61947800;9.05303100;2023-04-21T03:05:26;95649.28;;;0.41;100.00
7824;BME280;3957;48.61947800;9.05303100;2023-04-21T03:06:28;95646.47;;;0.42;100.00
7824;BME280;3957;48.61947800;9.05303100;2023-04-21T03:07:29;95645.34;;;0.45;100.00
7824;BME280;3957;48.61947800;9.05303100;2023-04-21T03:08:31;95649.50;;;0.47;100.00
7824;BME280;3957;48.61947800;9.05303100;2023-04-21T03:09:34;95651.97;;;0.49;100.00
7824;BME280;3957;48.61947800;9.05303100;2023-04-21T03:10:36;95642.09;;;0.51;100.00
7824;BME280;3957;48.61947800;9.05303100;2023-04-21T03:11:38;95648.88;;;0.54;100.00
7824;BME280;3957;48.61947800;9.05303100;2023-04-21T03:12:39;95641.66;;;0.56;100.00
7824;BME280;3957;48.61947800;9.05303100;2023-04-21T03:13:41;95643.84;;;0.60;100.00
7824;BME280;3957;48.61947800;9.05303100;2023-04-21T03:14:42;95637.44;;;0.63;100.00
7824;BME280;3957;48.61947800;9.05303100;2023-04-21T03:15:44;95632.97;;;0.63;100.00
7824;BME280;3957;48.61947800;9.05303100;2023-04-21T03:16:46;95646.03;;;0.65;100.00
7824;BME280;3957;48.61947800;9.05303100;2023-04-21T03:17:49;95637.44;;;0.63;100.00
7824;BME280;3957;48.61947800;9.05303100;2023-04-21T03:18:51;95637.28;;;0.64;100.00
7824;BME280;3957;48.61947800;9.05303100;2023-04-21T03:19:52;95639.91;;;0.64;100.00
7824;BME280;3957;48.61947800;9.05303100;2023-04-21T03:20:59;95645.19;;;0.64;100.00
7824;BME280;3957;48.61947800;9.05303100;2023-04-21T03:22:01;95632.16;;;0.63;100.00
7824;BME280;3957;48.61947800;9.05303100;2023-04-21T03:23:03;95645.50;;;0.61;100.00
7824;BME280;3957;48.61947800;9.05303100;2023-04-21T03:24:05;95649.25;;;0.59;100.00
7824;BME280;3957;48.61947800;9.05303100;2023-04-21T03:25:07;95644.53;;;0.62;100.00
7824;BME280;3957;48.61947800;9.05303100;2023-04-21T03:26:09;95646.94;;;0.56;100.00
7824;BME280;3957;48.61947800;9.05303100;2023-04-21T03:27:11;95649.72;;;0.54;100.00
7824;BME280;3957;48.61947800;9.05303100;2023-04-21T03:28:12;95650.16;;;0.49;100.00
7824;BME280;3957;48.61947800;9.05303100;2023-04-21T03:29:14;95644.22;;;0.47;100.00
7824;BME280;3957;48.61947800;9.05303100;2023-04-21T03:30:16;95644.66;;;0.43;100.00
7824;BME280;3957;48.61947800;9.05303100;2023-04-21T03:31:17;95642.50;;;0.38;100.00
7824;BME280;3957;48.61947800;9.05303100;2023-04-21T03:32:19;95647.91;;;0.37;100.00
7824;BME280;3957;48.61947800;9.05303100;2023-04-21T03:33:21;95645.59;;;0.33;100.00
7824;BME280;3957;48.61947800;9.05303100;2023-04-21T03:34:22;95653.50;;;0.33;100.00
7824;BME280;3957;48.61947800;9.05303100;2023-04-21T03:35:24;95650.16;;;0.31;100.00
7824;BME280;3957;48.61947800;9.05303100;2023-04-21T03:36:26;95647.75;;;0.38;100.00
7824;BME280;3957;48.61947800;9.05303100;2023-04-21T03:37:27;95639.06;;;0.38;100.00
7824;BME280;3957;48.61947800;9.05303100;2023-04-21T03:38:29;95639.22;;;0.36;100.00
7824;BME280;3957;48.61947800;9.05303100;2023-04-21T03:39:31;95648.22;;;0.33;100.00
7824;BME280;3957;48.61947800;9.05303100;2023-04-21T03:40:33;95645.59;;;0.33;100.00
7824;BME280;3957;48.61947800;9.05303100;2023-04-21T03:41:35;95652.00;;;0.31;100.00
7824;BME280;3957;48.61947800;9.05303100;2023-04-21T03:42:38;95642.44;;;0.30;100.00
7824;BME280;3957;48.61947800;9.05303100;2023-04-21T03:43:39;95648.66;;;0.29;100.00
7824;BME280;3957;48.61947800;9.05303100;2023-04-21T03:44:41;95648.66;;;0.29;100.00
7824;BME280;3957;48.61947800;9.05303100;2023-04-21T03:45:42;95648.06;;;0.35;100.00
7824;BME280;3957;48.61947800;9.05303100;2023-04-21T03:46:44;95650.00;;;0.33;100.00
7824;BME280;3957;48.61947800;9.05303100;2023-04-21T03:47:45;95651.28;;;0.29;100.00
7824;BME280;3957;48.61947800;9.05303100;2023-04-21T03:48:47;95651.91;;;0.23;100.00
7824;BME280;3957;48.61947800;9.05303100;2023-04-21T03:49:49;95654.69;;;0.21;100.00
7824;BME280;3957;48.61947800;9.05303100;2023-04-21T03:50:50;95651.53;;;0.17;100.00
7824;BME280;3957;48.61947800;9.05303100;2023-04-21T03:51:52;95648.91;;;0.17;100.00
7824;BME280;3957;48.61947800;9.05303100;2023-04-21T03:52:53;95653.34;;;0.17;100.00
7824;BME280;3957;48.61947800;9.05303100;2023-04-21T03:53:55;95650.72;;;0.17;100.00
7824;BME280;3957;48.61947800;9.05303100;2023-04-21T03:54:56;95645.75;;;0.14;100.00
7824;BME280;3957;48.61947800;9.05303100;2023-04-21T03:55:58;95650.47;;;0.10;100.00
7824;BME280;3957;48.61947800;9.05303100;2023-04-21T03:57:00;95648.81;;;0.09;100.00
7824;BME280;3957;48.61947800;9.05303100;2023-04-21T03:58:01;95642.75;;;0.09;100.00
7824;BME280;3957;48.61947800;9.05303100;2023-04-21T03:59:03;95640.09;;;0.09;100.00
7824;BME280;3957;48.61947800;9.05303100;2023-04-21T04:00:05;95645.38;;;0.09;100.00
7824;BME280;3957;48.61947800;9.05303100;2023-04-21T04:01:12;95645.38;;;0.09;100.00
7824;BME280;3957;48.61947800;9.05303100;2023-04-21T04:02:14;95634.69;;;0.10;100.00
7824;BME280;3957;48.61947800;9.05303100;2023-04-21T04:03:16;95641.47;;;0.13;100.00
7824;BME280;3957;48.61947800;9.05303100;2023-04-21T04:04:18;95642.59;;;0.10;100.00
7824;BME280;3957;48.61947800;9.05303100;2023-04-21T04:05:20;95646.88;;;0.11;100.00
7824;BME280;3957;48.61947800;9.05303100;2023-04-21T04:06:21;95644.25;;;0.11;100.00
7824;BME280;3957;48.61947800;9.05303100;2023-04-21T04:07:23;95646.72;;;0.13;100.00
7824;BME280;3957;48.61947800;9.05303100;2023-04-21T04:08:25;95644.91;;;0.13;100.00
7824;BME280;3957;48.61947800;9.05303100;2023-04-21T04:09:26;95641.16;;;0.16;100.00
7824;BME280;3957;48.61947800;9.05303100;2023-04-21T04:10:28;95641.84;;;0.18;100.00
7824;BME280;3957;48.61947800;9.05303100;2023-04-21T04:11:30;95643.31;;;0.21;100.00
7824;BME280;3957;48.61947800;9.05303100;2023-04-21T04:12:32;95640.84;;;0.19;100.00
7824;BME280;3957;48.61947800;9.05303100;2023-04-21T04:13:33;95646.25;;;0.17;100.00
7824;BME280;3957;48.61947800;9.05303100;2023-04-21T04:14:35;95641.69;;;0.20;100.00
7824;BME280;3957;48.61947800;9.05303100;2023-04-21T04:15:36;95645.84;;;0.22;100.00
7824;BME280;3957;48.61947800;9.05303100;2023-04-21T04:16:38;95653.72;;;0.22;100.00
7824;BME280;3957;48.61947800;9.05303100;2023-04-21T04:17:39;95655.81;;;0.19;100.00
7824;BME280;3957;48.61947800;9.05303100;2023-04-21T04:18:41;95655.28;;;0.15;100.00
7824;BME280;3957;48.61947800;9.05303100;2023-04-21T04:19:42;95662.13;;;0.08;100.00
7824;BME280;3957;48.61947800;9.05303100;2023-04-21T04:20:44;95658.53;;;0.09;100.00
7824;BME280;3957;48.61947800;9.05303100;2023-04-21T04:21:45;95657.56;;;0.10;100.00
7824;BME280;3957;48.61947800;9.05303100;2023-04-21T04:22:49;95654.22;;;0.08;100.00
7824;BME280;3957;48.61947800;9.05303100;2023-04-21T04:23:50;95655.19;;;0.07;100.00
7824;BME280;3957;48.61947800;9.05303100;2023-04-21T04:24:52;95654.22;;;0.08;100.00
7824;BME280;3957;48.61947800;9.05303100;2023-04-21T04:25:54;95649.66;;;0.10;100.00
7824;BME280;3957;48.61947800;9.05303100;2023-04-21T04:26:56;95650.63;;;0.09;100.00
7824;BME280;3957;48.61947800;9.05303100;2023-04-21T04:28:00;95654.91;;;0.10;100.00
7824;BME280;3957;48.61947800;9.05303100;2023-04-21T04:29:01;95659.50;;;0.08;100.00
7824;BME280;3957;48.61947800;9.05303100;2023-04-21T04:30:03;95653.69;;;0.04;100.00
7824;BME280;3957;48.61947800;9.05303100;2023-04-21T04:31:05;95648.31;;;0.06;100.00
7824;BME280;3957;48.61947800;9.05303100;2023-04-21T04:32:08;95651.75;;;0.06;100.00
7824;BME280;3957;48.61947800;9.05303100;2023-04-21T04:33:11;95647.47;;;0.05;100.00
7824;BME280;3957;48.61947800;9.05303100;2023-04-21T04:34:13;95647.84;;;0.10;100.00
7824;BME280;3957;48.61947800;9.05303100;2023-04-21T04:35:15;95647.03;;;0.10;100.00
7824;BME280;3957;48.61947800;9.05303100;2023-04-21T04:36:17;95646.03;;;0.11;100.00
7824;BME280;3957;48.61947800;9.05303100;2023-04-21T04:37:19;95644.25;;;0.11;100.00
7824;BME280;3957;48.61947800;9.05303100;2023-04-21T04:38:22;95644.91;;;0.13;100.00
7824;BME280;3957;48.61947800;9.05303100;2023-04-21T04:39:23;95651.00;;;0.14;100.00
7824;BME280;3957;48.61947800;9.05303100;2023-04-21T04:40:26;95641.47;;;0.13;100.00
7824;BME280;3957;48.61947800;9.05303100;2023-04-21T04:41:29;95650.72;;;0.17;100.00
7824;BME280;3957;48.61947800;9.05303100;2023-04-21T04:42:31;95647.78;;;0.20;100.00
7824;BME280;3957;48.61947800;9.05303100;2023-04-21T04:43:33;95652.06;;;0.21;100.00
7824;BME280;3957;48.61947800;9.05303100;2023-04-21T04:44:37;95646.97;;;0.20;100.00
7824;BME280;3957;48.61947800;9.05303100;2023-04-21T04:45:38;95651.69;;;0.16;100.00
7824;BME280;3957;48.61947800;9.05303100;2023-04-21T04:46:40;95644.91;;;0.13;100.00
7824;BME280;3957;48.61947800;9.05303100;2023-04-21T04:47:41;95648.22;;;0.15;100.00
7824;BME280;3957;48.61947800;9.05303100;2023-04-21T04:48:43;95650.00;;;0.15;100.00
7824;BME280;3957;48.61947800;9.05303100;2023-04-21T04:49:45;95647.53;;;0.13;100.00
7824;BME280;3957;48.61947800;9.05303100;2023-04-21T04:50:47;95653.25;;;0.09;100.00
7824;BME280;3957;48.61947800;9.05303100;2023-04-21T04:51:49;95654.38;;;0.06;100.00
7824;BME280;3957;48.61947800;9.05303100;2023-04-21T04:52:50;95650.31;;;0.12;100.00
7824;BME280;3957;48.61947800;9.05303100;2023-04-21T04:53:52;95655.44;;;0.13;100.00
7824;BME280;3957;48.61947800;9.05303100;2023-04-21T04:54:53;95655.00;;;0.18;100.00
7824;BME280;3957;48.61947800;9.05303100;2023-04-21T04:55:55;95651.22;;;0.21;100.00
7824;BME280;3957;48.61947800;9.05303100;2023-04-21T04:56:58;95654.22;;;0.26;100.00